createdAt,value
2023-03-22T00:04:47.723Z,0
2023-03-22T00:11:10.773Z,0
2023-03-22T00:17:30.818Z,0
2023-03-22T00:23:53.811Z,0
2023-03-22T00:30:13.826Z,0
2023-03-22T00:36:36.895Z,0
2023-03-22T00:42:56.768Z,0
2023-03-22T00:49:19.859Z,0
2023-03-22T00:55:39.908Z,0
2023-03-22T01:02:02.777Z,0
2023-03-22T01:08:22.869Z,0
2023-03-22T01:14:45.833Z,0
2023-03-22T01:21:05.881Z,0
2023-03-22T01:27:28.781Z,0
2023-03-22T01:33:48.845Z,0
2023-03-22T01:40:11.795Z,0
2023-03-22T01:46:31.894Z,0
2023-03-22T01:52:54.817Z,0
2023-03-22T01:59:14.883Z,0
2023-03-22T02:05:37.820Z,0
2023-03-22T02:11:57.877Z,0
2023-03-22T02:18:20.839Z,0
2023-03-22T02:24:42.585Z,0
2023-03-22T02:31:03.871Z,0
2023-03-22T02:37:23.974Z,0
2023-03-22T02:43:46.769Z,0
2023-03-22T02:50:06.926Z,0
2023-03-22T02:56:29.817Z,0
2023-03-22T03:02:49.865Z,0
2023-03-22T03:09:12.841Z,0
2023-03-22T03:15:32.859Z,0
2023-03-22T03:21:55.814Z,0
2023-03-22T03:28:15.862Z,0
2023-03-22T03:34:38.762Z,0
2023-03-22T03:40:58.821Z,0
2023-03-22T03:47:21.804Z,0
2023-03-22T03:53:41.820Z,0
2023-03-22T04:00:04.781Z,0
2023-03-22T04:06:24.880Z,0
2023-03-22T04:12:47.754Z,0
2023-03-22T04:29:12.702Z,0
2023-03-22T04:35:32.727Z,0
2023-03-22T04:41:55.809Z,0
2023-03-22T04:48:15.853Z,0
2023-03-22T04:54:38.804Z,0
2023-03-22T05:00:58.756Z,0
2023-03-22T05:07:21.831Z,0
2023-03-22T05:13:41.832Z,0
2023-03-22T05:20:04.767Z,0
2023-03-22T05:26:24.854Z,0
2023-03-22T05:32:47.820Z,0
2023-03-22T05:39:07.779Z,0
2023-03-22T05:45:30.839Z,0
2023-03-22T05:51:50.787Z,5.62
2023-03-22T05:58:13.833Z,5.62
2023-03-22T06:04:33.827Z,5.62
2023-03-22T06:10:56.845Z,11.25
2023-03-22T06:17:16.869Z,16.88
2023-03-22T06:23:39.831Z,16.88
2023-03-22T06:29:59.799Z,22.5
2023-03-22T06:36:22.742Z,22.5
2023-03-22T06:42:42.835Z,22.5
2023-03-22T06:49:05.777Z,22.5
2023-03-22T06:55:25.769Z,22.5
2023-03-22T07:01:48.799Z,28.12
2023-03-22T07:08:08.804Z,28.12
2023-03-22T07:14:31.758Z,33.75
2023-03-22T07:20:51.838Z,33.75
2023-03-22T07:27:14.774Z,45
2023-03-22T07:33:34.811Z,50.62
2023-03-22T07:39:57.860Z,56.25
2023-03-22T07:46:17.745Z,39.38
2023-03-22T07:52:40.791Z,50.62
2023-03-22T07:59:00.822Z,50.62
2023-03-22T08:05:23.804Z,50.62
2023-03-22T08:11:43.754Z,33.75
2023-03-22T08:18:06.793Z,33.75
2023-03-22T08:24:27.245Z,33.75
2023-03-22T08:30:49.755Z,56.25
2023-03-22T08:37:09.896Z,67.5
2023-03-22T08:43:32.792Z,67.5
2023-03-22T08:49:52.762Z,50.62
2023-03-22T08:56:15.861Z,56.25
2023-03-22T09:02:35.840Z,67.5
2023-03-22T09:08:58.776Z,84.38
2023-03-22T09:15:18.834Z,73.12
2023-03-22T09:21:41.746Z,95.62
2023-03-22T09:28:01.775Z,73.12
2023-03-22T09:34:24.793Z,67.5
2023-03-22T09:58:06.301Z,78.75
2023-03-22T10:04:25.816Z,78.75
2023-03-22T10:10:48.825Z,95.62
2023-03-22T10:17:08.790Z,78.75
2023-03-22T10:23:31.764Z,84.38
2023-03-22T10:29:51.775Z,95.62
2023-03-22T10:36:14.770Z,84.38
2023-03-22T10:42:34.792Z,90
2023-03-22T10:48:57.760Z,95.62
2023-03-22T10:55:17.807Z,84.38
2023-03-22T11:01:40.898Z,106.88
2023-03-22T11:08:00.742Z,129.38
2023-03-22T11:14:23.850Z,106.88
2023-03-22T11:20:44.146Z,101.25
2023-03-22T11:27:06.774Z,101.25
2023-03-22T11:33:26.807Z,101.25
2023-03-22T11:39:49.762Z,101.25
2023-03-22T11:46:09.830Z,95.62
2023-03-22T11:52:32.811Z,78.75
2023-03-22T11:58:52.743Z,84.38
2023-03-22T12:05:15.868Z,73.12
2023-03-22T12:11:35.780Z,84.38
2023-03-22T12:17:58.889Z,78.75
2023-03-22T12:24:18.759Z,67.5
2023-03-22T12:30:42.990Z,61.88
2023-03-22T12:37:01.761Z,56.25
2023-03-22T12:43:24.777Z,45
2023-03-22T12:49:44.773Z,50.62
2023-03-22T12:56:07.737Z,45
2023-03-22T13:02:27.860Z,45
2023-03-22T13:08:50.790Z,33.75
2023-03-22T13:15:10.789Z,33.75
2023-03-22T13:21:34.826Z,33.75
2023-03-22T13:27:54.821Z,28.12
2023-03-22T13:34:17.854Z,39.38
2023-03-22T13:40:37.990Z,50.62
2023-03-22T13:47:00.935Z,50.62
2023-03-22T13:53:20.763Z,39.38
2023-03-22T13:59:43.834Z,33.75
2023-03-22T14:06:03.971Z,33.75
2023-03-22T14:12:26.832Z,45
2023-03-22T14:18:46.796Z,39.38
2023-03-22T14:49:31.787Z,22.5
2023-03-22T14:55:51.755Z,28.12
2023-03-22T15:02:14.748Z,33.75
2023-03-22T15:08:34.837Z,28.12
2023-03-22T15:14:57.800Z,33.75
2023-03-22T15:21:17.781Z,39.38
2023-03-22T15:37:45.743Z,16.88
2023-03-22T15:44:05.776Z,16.88
2023-03-22T15:50:28.864Z,16.88
2023-03-22T15:56:48.774Z,16.88
2023-03-22T16:03:11.762Z,11.25
2023-03-22T16:09:31.769Z,11.25
2023-03-22T16:15:54.810Z,5.62
2023-03-22T16:22:14.773Z,5.62
2023-03-22T16:28:37.833Z,5.62
2023-03-22T16:34:57.820Z,5.62
2023-03-22T16:41:20.759Z,5.62
2023-03-22T16:47:40.750Z,5.62
2023-03-22T16:54:03.805Z,5.62
2023-03-22T17:00:23.806Z,5.62
2023-03-22T17:06:46.768Z,5.62
2023-03-22T17:13:06.765Z,0
2023-03-22T17:19:29.790Z,0
2023-03-22T17:25:49.754Z,0
2023-03-22T17:32:16.161Z,0
2023-03-22T17:38:39.253Z,0
2023-03-22T17:44:57.628Z,0
2023-03-22T17:51:15.812Z,0
2023-03-22T17:58:15.123Z,0
2023-03-22T18:03:59.777Z,0
2023-03-22T18:10:22.801Z,0
2023-03-22T18:16:52.657Z,0
2023-03-22T18:23:05.902Z,0
2023-03-22T18:29:25.777Z,0
2023-03-22T18:35:48.780Z,0
2023-03-22T18:42:18.911Z,0
2023-03-22T18:48:31.777Z,0
2023-03-22T18:54:55.509Z,0
2023-03-22T19:01:14.807Z,0
2023-03-22T19:07:45.092Z,0
2023-03-22T19:14:43.060Z,0
2023-03-22T19:20:17.765Z,0
2023-03-22T19:26:43.590Z,0
2023-03-22T19:33:22.067Z,0
2023-03-22T19:39:23.804Z,0
2023-03-22T19:45:43.791Z,0
2023-03-22T19:52:06.794Z,0
2023-03-22T19:58:26.744Z,0
2023-03-22T20:04:49.815Z,0
2023-03-22T20:11:18.877Z,0
2023-03-22T20:17:32.745Z,0
2023-03-22T20:23:53.089Z,0
2023-03-22T20:30:15.794Z,0
2023-03-22T20:36:35.841Z,0
2023-03-22T20:59:06.811Z,0
2023-03-22T21:05:29.729Z,0
2023-03-22T21:11:49.897Z,0
2023-03-22T21:18:12.780Z,0
2023-03-22T21:24:33.013Z,0
2023-03-22T21:30:55.778Z,0
2023-03-22T21:37:15.769Z,0
2023-03-22T21:43:38.840Z,0
2023-03-22T21:49:58.798Z,0
2023-03-22T21:56:21.828Z,0
2023-03-22T22:02:41.740Z,0
2023-03-22T22:09:04.743Z,0
2023-03-22T22:15:24.803Z,0
2023-03-22T22:21:47.752Z,0
2023-03-22T22:28:07.994Z,0
2023-03-22T22:34:30.816Z,0
2023-03-22T22:40:50.765Z,0
2023-03-22T22:47:13.824Z,0
2023-03-22T22:53:33.839Z,0
2023-03-22T22:59:56.851Z,0
2023-03-22T23:22:54.754Z,0
2023-03-22T23:29:14.767Z,0
2023-03-22T23:35:37.827Z,0
2023-03-22T23:41:57.800Z,0
2023-03-22T23:48:20.783Z,0
2023-03-22T23:54:40.791Z,0
